Aviation Digital Data Service (ADDS)

Output produced by METARs form (0508 UTC 25 June 2017)
found at http://aviationweather.gov/adds/metars/
 
KBUF 250254Z 2503/2524 24008KT P6SM SCT050 
     FM250500 22005KT P6SM SCT050 
     FM251300 24014G22KT P6SM BKN100 
     FM251700 24018G26KT P6SM -SHRA BKN040